Rechercher aéroport 
image banner adimage banner adimage banner ad
image banner ad

PA63 - Wpxi-Tv Evergreen Road

Situé à Pittsburgh, United States

ICAO - PA63, IATA -

Données fournies par Airmate  

Information générale

Coordonnées: N40°29'43" W80°0'38"
Élévation : 1106 feet MSL.
Variation magnétique : +19° East
Voir autres Aéroports à Pennsylvania

Données opérationnelles

Special qualification required
Heure actuelle UTC:
Heure actuelle locale:
Météo à : KAGC - Allegheny County ( 17 km )
METAR: KAGC 150553Z 33005KT 10SM CLR 16/13 A2988 RMK AO2 SLP116 T01560128 10200 20156 53002
TAF: KAGC 150536Z 1506/1606 33006KT P6SM SCT060 FM150900 02005KT 3SM BR SKC TEMPO 1510/1512 1SM BR SCT002 FM151200 33008KT P6SM SCT060 FM151600 33010G18KT P6SM SCT040 FM160000 32008KT P6SM SCT150
Voir NOTAMs / SUP AIP / TFR affectant cet aéroport [VIEW]
Fréquences de communication: [VIEW]

Pistes:

Identifiant RWYQFULongueur (ft)Largeur (ft)SurfaceLDA (ft)
18196°300060GRAVE
3616°300060GRAVE

Coordonnées de l'aéroport

Adresse: Pittsburgh United States

Vue satellite de PA63